createdAt,value
2018-04-25T00:04:28.130Z,12.3
2018-04-25T00:10:18.734Z,12.72
2018-04-25T00:16:09.348Z,12.47
2018-04-25T00:21:59.950Z,12.49
2018-04-25T00:27:50.541Z,13.64
2018-04-25T00:33:41.154Z,13.14
2018-04-25T00:39:31.746Z,13.18
2018-04-25T00:45:22.307Z,12.49
2018-04-25T00:51:12.934Z,14.15
2018-04-25T00:57:03.488Z,13.26
2018-04-25T01:02:54.069Z,13.38
2018-04-25T01:08:44.661Z,13.71
2018-04-25T01:14:35.263Z,14.5
2018-04-25T01:20:25.819Z,13.04
2018-04-25T01:26:16.537Z,13.15
2018-04-25T01:32:07.107Z,13.77
2018-04-25T01:37:57.672Z,13.09
2018-04-25T01:43:48.259Z,14.29
2018-04-25T01:49:38.971Z,13.38
2018-04-25T01:55:29.551Z,14.01
2018-04-25T02:01:20.126Z,13.7
2018-04-25T02:07:10.721Z,12.29
2018-04-25T02:13:01.323Z,13.16
2018-04-25T02:18:51.983Z,13.73
2018-04-25T02:24:42.674Z,14.09
2018-04-25T02:30:33.364Z,14.52
2018-04-25T02:36:24.027Z,13.84
2018-04-25T02:42:14.716Z,13.67
2018-04-25T02:48:05.397Z,14.16
2018-04-25T02:53:56.104Z,13.12
2018-04-25T02:59:46.809Z,13.14
2018-04-25T03:05:37.467Z,14.22
2018-04-25T03:11:28.142Z,15.7
2018-04-25T03:17:18.756Z,14.73
2018-04-25T03:23:09.459Z,15.03
2018-04-25T03:29:00.124Z,15.2
2018-04-25T03:34:50.795Z,15.49
2018-04-25T03:40:41.469Z,14.49
2018-04-25T03:46:32.154Z,14.65
2018-04-25T03:52:22.789Z,14.45
2018-04-25T03:58:13.453Z,16.02
2018-04-25T04:04:04.137Z,15.17
2018-04-25T04:09:54.795Z,14.34
2018-04-25T04:15:45.478Z,15.3
2018-04-25T04:21:36.138Z,14.75
2018-04-25T04:27:26.799Z,14.89
2018-04-25T04:33:17.530Z,14.77
2018-04-25T04:39:08.147Z,15.1
2018-04-25T04:44:58.845Z,16.06
2018-04-25T04:50:49.487Z,17.44
2018-04-25T04:56:40.158Z,17.87
2018-04-25T05:02:30.818Z,19.53
2018-04-25T05:08:21.532Z,18.27
2018-04-25T05:14:12.209Z,18.44
2018-04-25T05:20:02.833Z,16.71
2018-04-25T05:25:53.541Z,17.71
2018-04-25T05:31:44.209Z,18.01
2018-04-25T05:37:34.750Z,15.6
2018-04-25T05:43:25.344Z,16.41
2018-04-25T05:49:15.977Z,17.61
2018-04-25T05:55:06.530Z,17.2
2018-04-25T06:00:57.135Z,23.42
2018-04-25T06:06:47.777Z,18.75
2018-04-25T06:12:38.438Z,18.64
2018-04-25T06:18:28.995Z,17.79
2018-04-25T06:24:19.709Z,17.08
2018-04-25T06:30:10.277Z,17.33
2018-04-25T06:36:00.935Z,16.87
2018-04-25T06:41:51.521Z,16.37
2018-04-25T06:47:42.206Z,16.91
2018-04-25T06:53:32.856Z,17.73
2018-04-25T06:59:23.528Z,18.8
2018-04-25T07:05:14.153Z,16.45
2018-04-25T07:11:04.782Z,16.23
2018-04-25T07:16:55.501Z,16.22
2018-04-25T07:22:46.141Z,16.1
2018-04-25T07:28:36.766Z,16.75
2018-04-25T07:34:27.446Z,19.27
2018-04-25T07:40:18.093Z,19.52
2018-04-25T07:46:08.832Z,17.96
2018-04-25T07:51:59.443Z,20.6
2018-04-25T07:57:50.283Z,17.59
2018-04-25T08:03:40.873Z,14.33
2018-04-25T08:09:31.496Z,13.64
2018-04-25T08:15:22.170Z,14.69
2018-04-25T08:21:12.836Z,13.94
2018-04-25T08:27:03.497Z,13.36
2018-04-25T08:32:54.225Z,11.91
2018-04-25T08:38:44.915Z,13
2018-04-25T08:44:35.603Z,11.85
2018-04-25T08:50:26.205Z,10.43
2018-04-25T08:56:16.905Z,12.45
2018-04-25T09:02:07.568Z,13.88
2018-04-25T09:07:58.265Z,12.92
2018-04-25T09:13:48.881Z,11.06
2018-04-25T09:19:39.549Z,11.52
2018-04-25T09:25:30.254Z,10.29
2018-04-25T09:31:20.902Z,8.93
2018-04-25T09:37:11.566Z,10.93
2018-04-25T09:43:02.231Z,11.32
2018-04-25T09:48:52.982Z,11.26
2018-04-25T09:54:43.582Z,11.58
2018-04-25T10:00:34.253Z,11.39
2018-04-25T10:06:24.922Z,10.87
2018-04-25T10:12:15.600Z,10.21
2018-04-25T10:18:06.220Z,11.41
2018-04-25T10:23:56.867Z,11.71
2018-04-25T10:29:47.565Z,12.98
2018-04-25T10:35:38.209Z,12.02
2018-04-25T10:41:28.860Z,11.9
2018-04-25T10:47:19.586Z,12.15
2018-04-25T10:53:10.198Z,11.68
2018-04-25T10:59:00.885Z,11.69
2018-04-25T11:04:51.538Z,10.7
2018-04-25T11:10:42.265Z,10.58
2018-04-25T11:16:32.933Z,10.82
2018-04-25T11:22:23.522Z,9.19
2018-04-25T11:28:14.188Z,9.83
2018-04-25T11:34:04.890Z,9.12
2018-04-25T11:39:55.554Z,10.28
2018-04-25T11:45:46.206Z,9.6
2018-04-25T11:51:36.932Z,7.83
2018-04-25T11:57:27.527Z,8.6
2018-04-25T12:03:18.243Z,7.71
2018-04-25T12:09:08.882Z,8.06
2018-04-25T12:14:59.678Z,8.51
2018-04-25T12:20:50.242Z,11.55
2018-04-25T12:26:40.929Z,8.49
2018-04-25T12:32:31.635Z,7.96
2018-04-25T12:38:22.268Z,8.94
2018-04-25T12:44:12.930Z,8.27
2018-04-25T12:50:03.613Z,8.43
2018-04-25T12:55:54.247Z,8.39
2018-04-25T13:01:44.976Z,7.36
2018-04-25T13:07:35.620Z,8.16
2018-04-25T13:13:26.290Z,7.61
2018-04-25T13:19:16.976Z,8.82
2018-04-25T13:25:07.643Z,7.1
2018-04-25T13:30:58.301Z,6.22
2018-04-25T13:36:48.995Z,7.98
2018-04-25T13:42:39.663Z,7.31
2018-04-25T13:48:30.351Z,7.43
2018-04-25T13:54:21.072Z,7.1
2018-04-25T14:00:11.708Z,7.66
2018-04-25T14:06:02.366Z,7.82
2018-04-25T14:11:53.015Z,6.57
2018-04-25T14:17:43.790Z,6.86
2018-04-25T14:23:34.451Z,7.07
2018-04-25T14:29:25.039Z,7.71
2018-04-25T14:35:15.682Z,7.53
2018-04-25T14:41:06.390Z,7.01
2018-04-25T14:46:57.010Z,7.46
2018-04-25T14:52:47.737Z,8.02
2018-04-25T14:58:38.389Z,7.75
2018-04-25T15:04:29.070Z,7.87
2018-04-25T15:10:19.713Z,7.3
2018-04-25T15:16:10.428Z,6.81
2018-04-25T15:22:01.097Z,6.2
2018-04-25T15:27:51.800Z,7.09
2018-04-25T15:33:42.385Z,7.16
2018-04-25T15:39:33.848Z,7.16
2018-04-25T15:45:23.764Z,8.26
2018-04-25T15:51:14.443Z,8.18
2018-04-25T15:57:05.132Z,8.34
2018-04-25T16:02:55.749Z,8.36
2018-04-25T16:08:46.439Z,8.09
2018-04-25T16:14:37.081Z,7.75
2018-04-25T16:20:27.830Z,8.22
2018-04-25T16:26:18.446Z,8.94
2018-04-25T16:32:09.116Z,8.12
2018-04-25T16:37:59.821Z,6.78
2018-04-25T16:43:50.393Z,6.4
2018-04-25T16:49:41.062Z,6.8
2018-04-25T16:55:31.742Z,7.54
2018-04-25T17:01:22.397Z,8.38
2018-04-25T17:07:13.123Z,8.76
2018-04-25T17:13:03.718Z,9.09
2018-04-25T17:18:54.434Z,8.82
2018-04-25T17:24:45.112Z,9.56
2018-04-25T17:30:35.769Z,10.64
2018-04-25T17:36:26.378Z,10.14
2018-04-25T17:42:17.005Z,9.86
2018-04-25T17:48:07.750Z,10.02
2018-04-25T17:53:58.440Z,9.83
2018-04-25T17:59:49.016Z,10.48
2018-04-25T18:05:39.711Z,10.48
2018-04-25T18:11:30.426Z,10.26
2018-04-25T18:17:21.021Z,11.57
2018-04-25T18:23:11.697Z,10.52
2018-04-25T18:29:02.371Z,10.13
2018-04-25T18:34:53.037Z,10.51
2018-04-25T18:40:43.738Z,11.84
2018-04-25T18:46:34.371Z,11.25
2018-04-25T18:52:24.974Z,12.56
2018-04-25T18:58:15.709Z,12.57
2018-04-25T19:04:06.344Z,13.7
2018-04-25T19:09:57.084Z,12.61
2018-04-25T19:15:47.718Z,12.88
2018-04-25T19:21:38.313Z,14.16
2018-04-25T19:27:28.967Z,15.59
2018-04-25T19:33:19.655Z,14.6
2018-04-25T19:39:10.367Z,14.96
2018-04-25T19:45:00.998Z,15.55
2018-04-25T19:50:51.646Z,13.8
2018-04-25T19:56:42.267Z,16.9
2018-04-25T20:02:32.924Z,14.81
2018-04-25T20:08:23.637Z,13.88
2018-04-25T20:14:14.248Z,14.44
2018-04-25T20:20:04.918Z,12.57
2018-04-25T20:25:55.527Z,14.01
2018-04-25T20:31:46.216Z,14.63
2018-04-25T20:37:36.851Z,14.16
2018-04-25T20:43:27.487Z,13.75
2018-04-25T20:49:18.150Z,14.85
2018-04-25T20:55:08.848Z,13.16
2018-04-25T21:00:59.474Z,12.87
2018-04-25T21:06:50.100Z,13.45
2018-04-25T21:12:40.767Z,13.34
2018-04-25T21:18:31.411Z,12.68
2018-04-25T21:24:22.077Z,14.18
2018-04-25T21:30:12.766Z,14.06
2018-04-25T21:36:03.364Z,13.78
2018-04-25T21:41:54.018Z,14.78
2018-04-25T21:47:44.649Z,15.17
2018-04-25T21:53:35.310Z,15.63
2018-04-25T21:59:25.926Z,14.85
2018-04-25T22:05:16.537Z,14.85
2018-04-25T22:11:07.199Z,25.49
2018-04-25T22:16:57.842Z,17.26
2018-04-25T22:22:48.484Z,14.75
2018-04-25T22:28:39.120Z,15.08
2018-04-25T22:34:29.716Z,14.98
2018-04-25T22:40:20.384Z,14.96
2018-04-25T22:46:11.007Z,15.24
2018-04-25T22:52:01.684Z,90.43
2018-04-25T22:57:52.311Z,59.37
2018-04-25T23:03:42.911Z,15.89
2018-04-25T23:09:33.560Z,15.81
2018-04-25T23:15:24.195Z,17.18
2018-04-25T23:21:14.844Z,15.66
2018-04-25T23:27:05.449Z,16.21
2018-04-25T23:32:56.064Z,16.24
2018-04-25T23:38:46.702Z,17.16
2018-04-25T23:44:37.327Z,17.6
2018-04-25T23:50:27.897Z,16.86
2018-04-25T23:56:18.591Z,16.76
